createdAt,value
2022-09-28T11:43:53.015Z,46.75
2022-09-28T11:51:43.751Z,47.34
2022-09-28T11:55:05.735Z,48.05
2022-09-28T11:57:51.118Z,48.21
2022-09-28T12:01:07.807Z,48.89
2022-09-28T12:53:49.253Z,45.70
2022-09-28T12:56:39.037Z,46.14
2022-09-28T12:59:18.364Z,47.28
2022-09-28T13:02:20.768Z,48.05
2022-09-28T13:05:08.050Z,48.32
2022-09-28T13:08:14.124Z,48.50
2022-09-28T13:11:16.853Z,48.92
2022-09-28T13:14:35.058Z,49.25
2022-09-28T13:17:48.285Z,49.45
2022-09-28T13:20:50.507Z,49.71
2022-09-28T13:23:38.457Z,49.90
2022-09-28T13:26:25.333Z,50.32
2022-09-28T13:29:13.083Z,50.99
2022-09-28T13:32:01.116Z,51.78
2022-09-28T13:34:58.773Z,52.07
2022-09-28T13:38:34.058Z,53.01
2022-09-28T13:41:20.328Z,54.27
2022-09-28T13:48:16.255Z,57.56
2022-09-28T13:51:39.088Z,58.63
2022-09-28T13:58:20.239Z,60.47
2022-09-28T14:01:22.925Z,61.04
2022-09-28T14:04:43.192Z,61.29
2022-09-28T14:07:42.790Z,61.64
2022-09-28T14:10:58.722Z,62.05
2022-09-28T14:13:43.933Z,62.66
2022-09-28T14:16:28.091Z,62.92
2022-09-28T14:19:33.387Z,63.12
2022-09-28T14:22:41.425Z,63.65
2022-09-28T14:25:32.437Z,64.24
2022-09-28T14:28:26.674Z,64.62
2022-09-28T14:31:09.064Z,65.01
2022-09-28T14:33:56.978Z,65.09
2022-09-28T14:37:01.514Z,65.18
2022-09-28T14:39:56.760Z,65.33
2022-09-28T14:42:26.530Z,65.44
2022-09-28T14:45:07.050Z,65.42
2022-09-28T14:48:03.758Z,65.54
2022-09-28T14:50:44.610Z,65.97
2022-09-28T14:53:41.563Z,66.22
2022-09-28T14:57:10.867Z,66.25
2022-09-28T15:00:22.547Z,66.30
2022-09-28T15:03:10.083Z,66.55
2022-09-28T15:06:45.543Z,66.71
2022-09-28T15:09:37.712Z,66.93
2022-09-28T15:12:39.082Z,67.22
2022-09-28T15:15:59.602Z,67.35
2022-09-28T15:19:07.200Z,67.67
2022-09-28T15:22:03.576Z,67.63
2022-09-28T15:24:44.281Z,67.90
2022-09-28T15:27:23.416Z,67.67
2022-09-28T15:30:02.508Z,67.64
2022-09-28T15:32:46.889Z,67.85
2022-09-28T15:35:26.725Z,67.82
2022-09-28T15:38:19.492Z,67.89
2022-09-28T15:41:14.826Z,67.97
2022-09-28T15:44:19.781Z,67.88
2022-09-28T15:47:33.912Z,67.95
2022-09-28T15:50:26.785Z,68.02
2022-09-28T15:53:27.937Z,67.94
2022-09-28T15:56:22.352Z,68.07
2022-09-28T15:59:18.524Z,68.08
2022-09-28T16:02:22.219Z,68.12
2022-09-28T16:05:31.022Z,67.94
2022-09-28T16:08:43.051Z,67.68
2022-09-28T16:11:31.604Z,67.85
2022-09-28T16:14:27.675Z,67.53
2022-09-28T16:17:05.601Z,67.30
2022-09-28T16:19:46.019Z,67.34
2022-09-28T16:22:28.698Z,67.41
2022-09-28T16:25:03.744Z,67.58
2022-09-28T16:27:46.068Z,67.68
2022-09-28T16:30:31.969Z,67.62
2022-09-28T16:33:29.896Z,67.81
2022-09-28T16:36:11.354Z,67.90
2022-09-28T16:39:00.361Z,67.68
2022-09-28T16:41:37.782Z,67.71
2022-09-28T16:44:28.890Z,67.79
2022-09-28T16:47:08.138Z,67.77
2022-09-28T16:49:42.807Z,67.81
2022-09-28T16:52:37.647Z,67.90
2022-09-28T16:58:11.567Z,68.10
2022-09-28T17:00:43.726Z,68.17
2022-09-28T17:03:26.657Z,67.96
2022-09-28T17:06:02.441Z,68.11
2022-09-28T17:08:41.678Z,68.17
2022-09-28T17:14:39.119Z,68.39
2022-09-28T17:17:31.302Z,68.49
2022-09-28T17:23:47.086Z,68.77
2022-09-28T17:27:00.736Z,68.80
2022-09-28T17:29:57.115Z,68.92
2022-09-28T17:33:06.553Z,68.88
2022-09-28T17:47:14.591Z,69.72
2022-09-28T17:49:46.127Z,69.81
2022-09-28T17:55:30.820Z,70.27
2022-09-28T17:58:01.596Z,70.28
2022-09-28T18:00:32.730Z,70.50
2022-09-28T18:03:01.985Z,70.68
2022-09-28T18:05:31.712Z,70.58
2022-09-28T18:08:06.076Z,70.64
2022-09-28T18:10:35.575Z,70.45
2022-09-28T18:13:07.940Z,70.61
2022-09-28T18:15:38.207Z,70.69
2022-09-28T18:18:09.787Z,70.75
2022-09-28T18:20:40.004Z,70.75
2022-09-28T18:23:09.308Z,70.89
2022-09-28T18:25:46.210Z,70.96
2022-09-28T18:28:17.979Z,71.07
2022-09-28T18:30:47.348Z,71.16
2022-09-28T18:33:16.747Z,71.52
2022-09-28T18:35:58.373Z,71.69
2022-09-28T18:38:27.641Z,71.76
2022-09-28T18:40:56.855Z,71.74
2022-09-28T18:43:25.944Z,71.72
2022-09-28T18:45:56.403Z,71.83
2022-09-28T18:48:28.224Z,71.74
2022-09-28T18:50:57.569Z,71.76
2022-09-28T18:53:26.822Z,71.78
2022-09-28T18:55:57.174Z,71.82
2022-09-28T18:58:28.728Z,71.78
2022-09-28T19:01:13.457Z,71.77
2022-09-28T19:03:47.452Z,71.85
2022-09-28T19:06:17.185Z,71.84
2022-09-28T19:08:53.656Z,72.15
2022-09-28T19:11:25.970Z,72.50
2022-09-28T19:13:56.081Z,72.70
2022-09-28T19:16:36.103Z,72.85
2022-09-28T19:19:06.770Z,73.06
2022-09-28T19:21:38.178Z,73.01
2022-09-28T19:24:08.828Z,73.01
2022-09-28T19:26:38.318Z,72.83
2022-09-28T19:29:08.389Z,72.77
2022-09-28T19:31:38.315Z,72.81
2022-09-28T19:34:10.476Z,72.95
2022-09-28T19:36:45.783Z,72.95
2022-09-28T19:39:36.041Z,72.83
2022-09-28T19:42:06.036Z,72.97
2022-09-28T19:44:37.486Z,72.74
2022-09-28T19:47:13.507Z,72.71
2022-09-28T19:49:43.178Z,72.89
2022-09-28T19:52:20.717Z,73.06
2022-09-28T19:55:01.578Z,73.11
2022-09-28T19:57:32.824Z,73.25
2022-09-28T20:00:06.415Z,73.39
2022-09-28T20:02:39.571Z,73.37
2022-09-28T20:05:10.228Z,73.49
2022-09-28T20:07:40.109Z,73.43
2022-09-28T20:10:12.297Z,73.45
2022-09-28T20:12:44.577Z,73.50
2022-09-28T20:15:16.832Z,73.27
2022-09-28T20:17:46.227Z,73.21
2022-09-28T20:20:16.579Z,73.24
2022-09-28T20:22:45.949Z,73.19
2022-09-28T20:25:15.685Z,73.11
2022-09-28T20:27:51.319Z,73.07
2022-09-28T20:30:28.796Z,73.08
2022-09-28T20:33:00.251Z,72.89
2022-09-28T20:35:33.004Z,72.79
2022-09-28T20:38:09.273Z,72.71
2022-09-28T20:40:41.163Z,72.76
2022-09-28T20:43:12.336Z,72.84
2022-09-28T20:45:43.916Z,73.02
2022-09-28T20:48:15.644Z,72.91
2022-09-28T20:50:47.776Z,72.96
2022-09-28T20:53:23.720Z,72.93
2022-09-28T20:56:38.320Z,72.88
2022-09-28T20:59:16.388Z,72.90
2022-09-28T21:02:07.686Z,72.80
2022-09-28T21:05:08.751Z,72.84
2022-09-28T21:08:03.830Z,72.94
2022-09-28T21:10:34.820Z,72.92
2022-09-28T21:13:32.858Z,72.85
2022-09-28T21:16:07.624Z,72.59
2022-09-28T21:18:45.059Z,72.62
2022-09-28T21:21:34.774Z,72.51
2022-09-28T21:27:38.260Z,72.33
2022-09-28T21:30:13.348Z,72.28
2022-09-28T21:32:45.918Z,72.12
2022-09-28T21:35:38.777Z,72.05
2022-09-28T21:38:43.339Z,72.10
2022-09-28T21:41:39.571Z,71.88
2022-09-28T21:44:32.194Z,71.68
2022-09-28T21:47:05.235Z,71.83
2022-09-28T21:49:44.159Z,71.88
2022-09-28T21:52:21.649Z,71.82
2022-09-28T21:54:51.257Z,71.79
2022-09-28T21:57:21.788Z,71.67
2022-09-28T21:59:55.384Z,71.66
2022-09-28T22:02:30.188Z,72.07
2022-09-28T22:05:11.106Z,72.11
2022-09-28T22:07:46.689Z,71.95
2022-09-28T22:10:20.742Z,71.95
2022-09-28T22:13:02.436Z,71.94
2022-09-28T22:15:43.171Z,72.00
2022-09-28T22:18:17.312Z,72.05
2022-09-28T22:21:11.000Z,71.96
2022-09-28T22:24:03.974Z,72.18
2022-09-28T22:26:40.805Z,72.14
2022-09-28T22:29:15.856Z,71.99
2022-09-28T22:31:48.834Z,72.02
2022-09-28T22:34:28.495Z,72.08
2022-09-28T22:37:09.749Z,72.50
2022-09-28T22:39:52.976Z,72.50
2022-09-28T22:42:23.876Z,72.52
2022-09-28T22:45:08.104Z,72.47
2022-09-28T22:47:42.481Z,72.53
2022-09-28T22:50:16.933Z,72.49
2022-09-28T22:52:50.141Z,72.42
2022-09-28T22:55:29.378Z,72.24
2022-09-28T22:58:02.419Z,72.27
2022-09-28T23:00:38.553Z,72.13
2022-09-28T23:03:21.818Z,72.07
2022-09-28T23:06:06.421Z,71.96
2022-09-28T23:08:40.617Z,71.99
2022-09-28T23:11:18.608Z,72.09
2022-09-28T23:13:55.698Z,72.00
2022-09-28T23:16:27.058Z,72.07
2022-09-28T23:19:01.114Z,71.92
2022-09-28T23:21:37.748Z,72.07
2022-09-28T23:24:16.549Z,72.22
2022-09-28T23:26:48.812Z,72.28
2022-09-28T23:29:26.948Z,72.13
2022-09-28T23:32:08.423Z,71.96
2022-09-28T23:34:42.668Z,72.03
2022-09-28T23:37:20.284Z,72.12
2022-09-28T23:39:53.520Z,72.01
2022-09-28T23:42:24.453Z,71.97
2022-09-28T23:44:59.824Z,71.76
2022-09-28T23:47:32.613Z,71.92
2022-09-28T23:50:34.212Z,71.77
2022-09-28T23:53:08.372Z,71.75
2022-09-28T23:55:46.173Z,71.83
2022-09-28T23:58:29.612Z,71.78
